createdAt,value
2023-05-07T00:02:17.849Z,4.95
2023-05-07T00:04:46.606Z,3.42
2023-05-07T00:07:15.256Z,5.80
2023-05-07T00:09:44.249Z,7.45
2023-05-07T00:12:13.009Z,3.85
2023-05-07T00:14:41.425Z,4.97
2023-05-07T00:17:11.250Z,3.85
2023-05-07T00:19:39.845Z,4.38
2023-05-07T00:22:08.358Z,4.80
2023-05-07T00:24:36.882Z,5.15
2023-05-07T00:27:05.428Z,4.30
2023-05-07T00:29:34.155Z,5.88
2023-05-07T00:32:02.831Z,5.97
2023-05-07T00:34:32.688Z,6.68
2023-05-07T00:37:01.249Z,6.38
2023-05-07T00:39:29.697Z,6.07
2023-05-07T00:41:58.439Z,7.00
2023-05-07T00:44:27.411Z,6.95
2023-05-07T00:46:56.499Z,5.93
2023-05-07T00:49:25.017Z,6.35
2023-05-07T00:51:55.013Z,8.48
2023-05-07T00:54:23.723Z,6.05
2023-05-07T00:56:52.532Z,7.38
2023-05-07T00:59:21.045Z,6.55
2023-05-07T01:01:49.739Z,7.25
2023-05-07T01:04:18.470Z,7.72
2023-05-07T01:06:48.133Z,6.85
2023-05-07T01:09:18.644Z,8.68
2023-05-07T01:11:47.272Z,6.47
2023-05-07T01:14:15.758Z,7.25
2023-05-07T01:16:44.408Z,7.80
2023-05-07T01:19:15.560Z,8.80
2023-05-07T01:21:47.066Z,7.97
2023-05-07T01:24:17.003Z,9.00
2023-05-07T01:26:45.841Z,8.68
2023-05-07T01:29:14.394Z,6.93
2023-05-07T01:31:44.781Z,8.40
2023-05-07T01:34:14.531Z,7.07
2023-05-07T01:36:44.508Z,7.05
2023-05-07T01:39:13.412Z,7.03
2023-05-07T01:41:43.292Z,8.45
2023-05-07T01:44:13.089Z,7.45
2023-05-07T01:46:42.035Z,6.93
2023-05-07T01:49:10.946Z,7.35
2023-05-07T01:51:39.431Z,8.43
2023-05-07T01:54:11.123Z,8.02
2023-05-07T01:56:39.653Z,6.72
2023-05-07T01:59:09.511Z,7.15
2023-05-07T02:01:38.077Z,6.97
2023-05-07T02:04:07.046Z,7.47
2023-05-07T02:06:36.020Z,7.28
2023-05-07T02:09:04.522Z,7.60
2023-05-07T02:11:32.977Z,7.15
2023-05-07T02:14:01.426Z,7.28
2023-05-07T02:16:31.399Z,7.15
2023-05-07T02:19:00.230Z,7.65
2023-05-07T02:21:31.025Z,6.88
2023-05-07T02:23:59.676Z,6.32
2023-05-07T02:26:28.252Z,7.57
2023-05-07T02:28:56.870Z,6.10
2023-05-07T02:31:25.501Z,6.32
2023-05-07T02:33:55.474Z,7.32
2023-05-07T02:36:23.909Z,7.82
2023-05-07T02:38:52.418Z,7.38
2023-05-07T02:41:21.124Z,8.07
2023-05-07T02:43:49.951Z,5.78
2023-05-07T02:46:18.506Z,6.78
2023-05-07T02:48:47.031Z,5.38
2023-05-07T02:51:17.295Z,6.07
2023-05-07T02:53:45.790Z,6.82
2023-05-07T02:56:14.362Z,6.03
2023-05-07T02:58:43.111Z,6.10
2023-05-07T03:01:11.677Z,7.88
2023-05-07T03:03:40.289Z,6.72
2023-05-07T03:06:09.405Z,6.47
2023-05-07T03:08:39.394Z,7.60
2023-05-07T03:11:08.021Z,6.38
2023-05-07T03:13:36.505Z,6.07
2023-05-07T03:16:05.197Z,7.95
2023-05-07T03:18:33.673Z,7.18
2023-05-07T03:21:02.272Z,6.93
2023-05-07T03:23:30.825Z,8.60
2023-05-07T03:26:01.033Z,9.77
2023-05-07T03:28:29.517Z,6.75
2023-05-07T03:30:58.347Z,8.07
2023-05-07T03:33:26.912Z,6.93
2023-05-07T03:35:55.414Z,8.07
2023-05-07T03:38:23.881Z,8.25
2023-05-07T03:40:52.660Z,8.48
2023-05-07T03:43:22.473Z,6.72
2023-05-07T03:45:50.927Z,8.63
2023-05-07T03:48:19.527Z,8.45
2023-05-07T03:50:48.782Z,7.03
2023-05-07T03:53:17.433Z,7.55
2023-05-07T03:55:46.071Z,8.32
2023-05-07T03:58:14.647Z,8.20
2023-05-07T04:00:44.631Z,8.27
2023-05-07T04:03:13.223Z,9.25
2023-05-07T04:05:41.963Z,10.77
2023-05-07T04:08:10.479Z,8.65
2023-05-07T04:10:38.968Z,9.90
2023-05-07T04:13:07.719Z,9.88
2023-05-07T04:15:36.350Z,9.95
2023-05-07T04:18:06.349Z,10.93
2023-05-07T04:20:37.895Z,11.88
2023-05-07T04:23:06.392Z,10.45
2023-05-07T04:25:35.289Z,11.35
2023-05-07T04:28:03.895Z,11.52
2023-05-07T04:30:32.809Z,9.90
2023-05-07T04:33:01.268Z,13.93
2023-05-07T04:35:31.157Z,10.45
2023-05-07T04:37:59.605Z,10.38
2023-05-07T04:40:28.116Z,10.10
2023-05-07T04:42:56.674Z,8.95
2023-05-07T04:45:25.257Z,9.80
2023-05-07T04:47:53.790Z,8.80
2023-05-07T04:50:24.570Z,8.10
2023-05-07T04:52:54.588Z,8.73
2023-05-07T04:55:23.135Z,8.38
2023-05-07T04:57:51.709Z,10.35
2023-05-07T05:00:20.645Z,13.68
2023-05-07T05:02:49.246Z,9.93
2023-05-07T05:05:17.887Z,9.45
2023-05-07T05:07:46.349Z,9.50
2023-05-07T05:10:17.346Z,11.27
2023-05-07T05:12:46.123Z,10.80
2023-05-07T05:15:14.897Z,15.40
2023-05-07T05:17:43.458Z,11.25
2023-05-07T05:20:12.847Z,11.38
2023-05-07T05:22:41.665Z,13.95
2023-05-07T05:25:10.581Z,12.35
2023-05-07T05:27:40.389Z,12.02
2023-05-07T05:30:09.869Z,11.73
2023-05-07T05:32:38.596Z,11.43
2023-05-07T05:35:07.664Z,12.35
2023-05-07T05:37:36.152Z,13.25
2023-05-07T05:40:05.330Z,13.43
2023-05-07T05:42:33.763Z,14.85
2023-05-07T05:45:03.650Z,13.45
2023-05-07T05:47:32.544Z,13.48
2023-05-07T05:50:01.116Z,13.68
2023-05-07T05:52:29.567Z,12.82
2023-05-07T05:54:58.060Z,13.55
2023-05-07T05:57:28.472Z,12.50
2023-05-07T05:59:59.580Z,13.65
2023-05-07T06:02:29.506Z,12.50
2023-05-07T06:04:58.113Z,11.93
2023-05-07T06:07:26.705Z,13.27
2023-05-07T06:09:56.472Z,12.23
2023-05-07T06:12:25.275Z,11.68
2023-05-07T06:14:53.753Z,11.10
2023-05-07T06:17:22.351Z,11.35
2023-05-07T06:19:52.501Z,10.45
2023-05-07T06:22:21.120Z,10.85
2023-05-07T06:24:50.012Z,10.85
2023-05-07T06:27:18.487Z,11.57
2023-05-07T06:29:46.986Z,9.88
2023-05-07T06:32:16.374Z,9.20
2023-05-07T06:34:44.879Z,10.65
2023-05-07T06:37:14.889Z,8.85
2023-05-07T06:39:43.377Z,8.93
2023-05-07T06:42:11.966Z,7.82
2023-05-07T06:44:40.532Z,7.53
2023-05-07T06:47:09.149Z,8.13
2023-05-07T06:49:37.678Z,7.60
2023-05-07T06:52:06.320Z,7.40
2023-05-07T06:54:36.268Z,8.15
2023-05-07T06:57:04.764Z,7.40
2023-05-07T06:59:33.523Z,7.07
2023-05-07T07:02:02.007Z,8.20
2023-05-07T07:04:31.191Z,6.95
2023-05-07T07:06:59.745Z,7.07
2023-05-07T07:09:28.384Z,6.70
2023-05-07T07:11:58.385Z,9.77
2023-05-07T07:14:27.004Z,7.97
2023-05-07T07:16:55.707Z,6.40
2023-05-07T07:19:24.160Z,7.95
2023-05-07T07:21:52.667Z,7.65
2023-05-07T07:24:24.281Z,6.05
2023-05-07T07:26:52.741Z,5.45
2023-05-07T07:29:22.683Z,5.68
2023-05-07T07:31:51.667Z,4.90
2023-05-07T07:34:20.168Z,4.40
2023-05-07T07:36:48.638Z,5.78
2023-05-07T07:39:17.163Z,5.00
2023-05-07T07:41:48.425Z,4.25
2023-05-07T07:44:17.208Z,4.57
2023-05-07T07:46:47.276Z,4.63
2023-05-07T07:49:15.798Z,3.97
2023-05-07T07:51:44.329Z,6.22
2023-05-07T07:54:13.390Z,5.70
2023-05-07T07:56:41.931Z,6.03
2023-05-07T07:59:10.376Z,5.00
2023-05-07T08:01:38.852Z,4.18
2023-05-07T08:04:08.897Z,4.30
2023-05-07T08:06:37.500Z,4.43
2023-05-07T08:09:06.330Z,4.68
2023-05-07T08:11:38.345Z,3.70
2023-05-07T08:14:06.894Z,3.67
2023-05-07T08:16:35.469Z,5.30
2023-05-07T08:19:04.493Z,3.88
2023-05-07T08:21:34.946Z,8.63
2023-05-07T08:24:03.615Z,3.15
2023-05-07T08:26:32.906Z,4.60
2023-05-07T08:29:01.470Z,4.03
2023-05-07T08:31:29.969Z,4.22
2023-05-07T08:33:58.691Z,4.68
2023-05-07T08:36:27.850Z,4.97
2023-05-07T08:38:57.913Z,3.75
2023-05-07T08:41:26.626Z,4.18
2023-05-07T08:43:55.153Z,3.15
2023-05-07T08:46:24.644Z,2.80
2023-05-07T08:48:53.660Z,2.70
2023-05-07T08:51:23.263Z,2.80
2023-05-07T08:53:52.494Z,4.38
2023-05-07T08:56:22.903Z,3.28
2023-05-07T08:58:52.475Z,3.22
2023-05-07T09:01:21.105Z,3.90
2023-05-07T09:03:49.844Z,3.88
2023-05-07T09:06:19.238Z,2.75
2023-05-07T09:08:52.996Z,2.58
2023-05-07T09:11:24.858Z,3.65
2023-05-07T09:13:56.574Z,2.70
2023-05-07T09:16:25.360Z,4.10
2023-05-07T09:18:54.663Z,2.20
2023-05-07T09:21:24.131Z,2.25
2023-05-07T09:23:53.828Z,5.15
2023-05-07T09:26:25.770Z,4.50
2023-05-07T09:28:54.940Z,4.60
2023-05-07T09:31:26.454Z,2.30
2023-05-07T09:33:57.178Z,6.88
2023-05-07T09:36:25.778Z,2.30
2023-05-07T09:38:54.939Z,2.72
2023-05-07T09:41:25.105Z,2.60
2023-05-07T09:43:56.630Z,3.78
2023-05-07T09:46:31.250Z,3.20
2023-05-07T09:49:00.458Z,2.75
2023-05-07T09:51:42.342Z,2.47
2023-05-07T09:54:11.180Z,3.35
2023-05-07T09:56:42.839Z,3.38
2023-05-07T09:59:13.584Z,2.75
2023-05-07T10:01:43.671Z,2.38
2023-05-07T10:04:12.962Z,2.90
2023-05-07T10:06:41.929Z,2.75
2023-05-07T10:09:10.841Z,3.38
2023-05-07T10:11:40.145Z,2.78
2023-05-07T10:14:10.415Z,2.05
2023-05-07T10:16:39.409Z,2.75
2023-05-07T10:19:07.943Z,2.40
2023-05-07T10:21:38.749Z,3.58
2023-05-07T10:24:09.721Z,3.75
2023-05-07T10:26:38.679Z,4.05
2023-05-07T10:29:10.814Z,3.42
2023-05-07T10:31:51.054Z,2.25
2023-05-07T10:34:21.463Z,2.25
2023-05-07T10:36:50.880Z,2.40
2023-05-07T10:39:19.480Z,3.63
2023-05-07T10:41:47.952Z,2.17
2023-05-07T10:44:27.810Z,2.13
2023-05-07T10:47:17.426Z,3.10
2023-05-07T10:50:04.409Z,2.78
2023-05-07T10:52:34.590Z,2.10
2023-05-07T10:55:22.933Z,3.33
2023-05-07T10:57:51.588Z,2.58
2023-05-07T11:00:44.567Z,3.78
2023-05-07T11:03:13.242Z,3.25
2023-05-07T11:05:42.006Z,4.50
2023-05-07T11:08:12.296Z,4.25
2023-05-07T11:10:53.992Z,2.25
2023-05-07T11:13:42.698Z,4.72
2023-05-07T11:16:19.993Z,3.22
2023-05-07T11:18:49.433Z,3.15
2023-05-07T11:21:34.452Z,2.88
2023-05-07T11:24:04.693Z,2.65
2023-05-07T11:26:34.429Z,2.85
2023-05-07T11:29:03.301Z,3.40
2023-05-07T11:31:32.973Z,3.83
2023-05-07T11:34:02.029Z,3.80
2023-05-07T11:36:34.634Z,5.55
2023-05-07T11:39:04.599Z,2.78
2023-05-07T11:41:39.602Z,3.67
2023-05-07T11:44:08.615Z,2.75
2023-05-07T11:46:37.312Z,4.57
2023-05-07T11:49:06.092Z,2.55
2023-05-07T11:54:12.526Z,2.70
2023-05-07T11:56:41.608Z,2.78
2023-05-07T11:59:10.158Z,3.30
2023-05-07T12:01:39.415Z,6.30
2023-05-07T12:04:08.322Z,2.80
2023-05-07T12:06:40.184Z,3.10
2023-05-07T12:09:12.828Z,3.30
2023-05-07T12:11:42.788Z,3.90
2023-05-07T12:14:12.384Z,3.33
2023-05-07T12:16:42.817Z,3.33
2023-05-07T12:19:15.664Z,2.22
2023-05-07T12:21:44.852Z,2.97
2023-05-07T12:24:13.434Z,3.17
2023-05-07T12:26:43.706Z,2.50
2023-05-07T12:29:12.295Z,2.85
2023-05-07T12:31:43.416Z,4.95
2023-05-07T12:34:13.553Z,3.15
2023-05-07T12:36:42.803Z,2.45
2023-05-07T12:39:11.714Z,4.97
2023-05-07T12:44:34.901Z,4.22
2023-05-07T12:47:05.003Z,2.53
2023-05-07T12:49:33.770Z,2.83
2023-05-07T12:52:02.425Z,3.55
2023-05-07T12:54:32.769Z,3.25
2023-05-07T12:57:04.992Z,2.50
2023-05-07T12:59:35.677Z,2.83
2023-05-07T13:02:04.351Z,2.88
2023-05-07T13:04:33.084Z,3.35
2023-05-07T13:07:01.749Z,4.60
2023-05-07T13:09:30.519Z,3.45
2023-05-07T13:12:01.102Z,3.80
2023-05-07T13:14:29.685Z,3.40
2023-05-07T13:16:59.553Z,5.65
2023-05-07T13:19:29.722Z,3.78
2023-05-07T13:22:00.237Z,4.10
2023-05-07T13:24:28.705Z,3.60
2023-05-07T13:26:57.392Z,7.13
2023-05-07T13:29:30.999Z,5.15
2023-05-07T13:32:01.052Z,3.90
2023-05-07T13:34:29.589Z,4.70
2023-05-07T13:36:58.145Z,4.43
2023-05-07T13:39:26.713Z,4.50
2023-05-07T13:41:55.220Z,6.18
2023-05-07T13:44:23.803Z,4.38
2023-05-07T13:46:52.418Z,4.53
2023-05-07T13:49:22.592Z,4.85
2023-05-07T13:51:51.175Z,6.05
2023-05-07T13:54:19.774Z,6.40
2023-05-07T13:56:48.533Z,4.47
2023-05-07T13:59:16.967Z,5.60
2023-05-07T14:01:45.808Z,8.45
2023-05-07T14:04:14.809Z,5.47
2023-05-07T14:06:44.782Z,5.45
2023-05-07T14:09:14.479Z,4.78
2023-05-07T14:11:43.017Z,5.13
2023-05-07T14:14:12.817Z,5.13
2023-05-07T14:16:41.345Z,5.35
2023-05-07T14:19:09.875Z,6.10
2023-05-07T14:21:38.360Z,7.07
2023-05-07T14:24:08.777Z,7.13
2023-05-07T14:26:37.641Z,6.95
2023-05-07T14:29:06.128Z,8.45
2023-05-07T14:31:35.094Z,7.63
2023-05-07T14:34:03.768Z,11.88
2023-05-07T14:36:32.841Z,8.65
2023-05-07T14:39:01.482Z,7.20
2023-05-07T14:41:32.288Z,9.50
2023-05-07T14:44:00.726Z,9.30
2023-05-07T14:46:29.889Z,7.78
2023-05-07T14:48:59.047Z,10.63
2023-05-07T14:51:29.182Z,8.10
2023-05-07T14:53:57.607Z,8.18
2023-05-07T14:56:26.939Z,6.88
2023-05-07T14:58:56.754Z,7.70
2023-05-07T15:01:25.349Z,6.55
2023-05-07T15:03:53.997Z,7.80
2023-05-07T15:06:22.648Z,8.68
2023-05-07T15:08:51.240Z,7.10
2023-05-07T15:11:19.711Z,7.50
2023-05-07T15:13:48.305Z,7.20
2023-05-07T15:16:18.410Z,7.57
2023-05-07T15:18:47.311Z,7.65
2023-05-07T15:21:15.984Z,9.40
2023-05-07T15:23:45.734Z,7.47
2023-05-07T15:26:14.270Z,8.98
2023-05-07T15:28:43.256Z,8.18
2023-05-07T15:31:11.790Z,10.85
2023-05-07T15:33:47.074Z,9.75
2023-05-07T15:36:15.604Z,9.68
2023-05-07T15:38:44.476Z,9.68
2023-05-07T15:41:13.092Z,11.20
2023-05-07T15:43:46.129Z,9.40
2023-05-07T15:46:14.731Z,10.32
2023-05-07T15:48:44.691Z,9.13
2023-05-07T15:51:13.347Z,11.05
2023-05-07T15:53:42.362Z,11.18
2023-05-07T15:56:11.407Z,10.80
2023-05-07T15:58:39.933Z,10.20
2023-05-07T16:01:08.526Z,14.18
2023-05-07T16:03:38.907Z,9.25
2023-05-07T16:06:11.027Z,9.50
2023-05-07T16:08:40.253Z,10.75
2023-05-07T16:11:08.810Z,10.07
2023-05-07T16:13:37.690Z,10.15
2023-05-07T16:16:07.446Z,11.65
2023-05-07T16:18:37.138Z,10.00
2023-05-07T16:21:05.861Z,10.18
2023-05-07T16:23:36.641Z,9.40
2023-05-07T16:26:05.943Z,10.15
2023-05-07T16:28:34.690Z,10.30
2023-05-07T16:31:03.489Z,11.13
2023-05-07T16:33:32.037Z,9.98
2023-05-07T16:36:00.579Z,10.85
2023-05-07T16:38:32.976Z,13.73
2023-05-07T16:41:02.870Z,10.27
2023-05-07T16:43:31.358Z,9.60
2023-05-07T16:45:59.827Z,9.35
2023-05-07T16:48:28.305Z,9.98
2023-05-07T16:50:56.891Z,9.98
2023-05-07T16:53:25.513Z,9.52
2023-05-07T16:55:56.662Z,9.18
2023-05-07T16:58:27.388Z,8.43
2023-05-07T17:00:56.160Z,8.60
2023-05-07T17:03:27.186Z,8.77
2023-05-07T17:05:56.176Z,8.35
2023-05-07T17:08:24.662Z,7.85
2023-05-07T17:10:53.264Z,10.85
2023-05-07T17:13:22.188Z,8.00
2023-05-07T17:15:55.003Z,7.70
2023-05-07T17:18:23.642Z,7.55
2023-05-07T17:20:52.166Z,7.32
2023-05-07T17:23:20.813Z,7.18
2023-05-07T17:25:49.284Z,8.07
2023-05-07T17:28:17.762Z,7.50
2023-05-07T17:30:46.530Z,8.93
2023-05-07T17:33:21.448Z,7.65
2023-05-07T17:35:51.250Z,9.93
2023-05-07T17:38:19.924Z,8.35
2023-05-07T17:40:48.702Z,8.80
2023-05-07T17:43:17.316Z,8.40
2023-05-07T17:45:46.136Z,8.40
2023-05-07T17:48:16.452Z,7.80
2023-05-07T17:50:45.629Z,7.95
2023-05-07T17:53:14.365Z,8.38
2023-05-07T17:55:44.034Z,8.80
2023-05-07T17:58:13.035Z,7.00
2023-05-07T18:00:41.945Z,8.02
2023-05-07T18:03:10.615Z,7.68
2023-05-07T18:05:40.876Z,7.88
2023-05-07T18:08:09.678Z,7.70
2023-05-07T18:10:38.490Z,8.52
2023-05-07T18:13:07.095Z,7.50
2023-05-07T18:15:38.108Z,9.70
2023-05-07T18:18:07.084Z,7.68
2023-05-07T18:20:35.954Z,7.32
2023-05-07T18:23:05.869Z,7.43
2023-05-07T18:25:34.504Z,9.30
2023-05-07T18:28:03.021Z,8.25
2023-05-07T18:30:31.697Z,10.23
2023-05-07T18:33:00.322Z,14.45
2023-05-07T18:35:28.841Z,13.40
2023-05-07T18:37:57.451Z,14.25
2023-05-07T18:40:27.500Z,15.15
2023-05-07T18:42:56.084Z,14.88
2023-05-07T18:45:24.818Z,16.23
2023-05-07T18:47:53.393Z,16.02
2023-05-07T18:50:22.315Z,18.15
2023-05-07T18:52:50.852Z,17.40
2023-05-07T18:55:21.852Z,13.95
2023-05-07T18:57:53.700Z,16.58
2023-05-07T19:00:22.483Z,14.68
2023-05-07T19:02:51.550Z,18.92
2023-05-07T19:05:20.467Z,14.30
2023-05-07T19:07:49.473Z,15.82
2023-05-07T19:10:18.033Z,15.20
2023-05-07T19:12:46.767Z,15.85
2023-05-07T19:15:16.888Z,14.77
2023-05-07T19:17:45.590Z,15.25
2023-05-07T19:20:14.753Z,14.35
2023-05-07T19:22:43.556Z,12.45
2023-05-07T19:25:12.361Z,13.77
2023-05-07T19:27:41.156Z,11.70
2023-05-07T19:30:11.931Z,11.10
2023-05-07T19:32:42.654Z,11.48
2023-05-07T19:35:12.077Z,11.70
2023-05-07T19:37:41.346Z,10.85
2023-05-07T19:40:11.256Z,12.45
2023-05-07T19:42:40.741Z,11.45
2023-05-07T19:45:10.225Z,12.65
2023-05-07T19:47:39.867Z,13.77
2023-05-07T19:50:11.212Z,12.50
2023-05-07T19:52:39.979Z,10.60
2023-05-07T19:55:09.508Z,12.50
2023-05-07T19:57:38.580Z,11.90
2023-05-07T20:00:08.418Z,12.20
2023-05-07T20:02:37.127Z,11.35
2023-05-07T20:05:05.923Z,12.50
2023-05-07T20:07:36.653Z,12.15
2023-05-07T20:10:08.408Z,12.63
2023-05-07T20:12:37.019Z,12.23
2023-05-07T20:15:06.006Z,12.75
2023-05-07T20:17:34.703Z,12.20
2023-05-07T20:20:03.914Z,12.02
2023-05-07T20:22:32.962Z,11.63
2023-05-07T20:25:02.884Z,13.32
2023-05-07T20:27:34.247Z,12.40
2023-05-07T20:30:03.222Z,13.98
2023-05-07T20:32:32.894Z,13.90
2023-05-07T20:35:01.863Z,13.35
2023-05-07T20:37:31.045Z,12.90
2023-05-07T20:39:59.690Z,14.48
2023-05-07T20:42:29.959Z,14.88
2023-05-07T20:44:59.761Z,14.38
2023-05-07T20:47:29.724Z,13.13
2023-05-07T20:49:58.717Z,15.15
2023-05-07T20:52:27.356Z,14.25
2023-05-07T20:54:55.970Z,15.50
2023-05-07T20:57:24.485Z,13.43
2023-05-07T20:59:54.417Z,15.23
2023-05-07T21:02:23.570Z,14.77
2023-05-07T21:04:52.715Z,13.00
2023-05-07T21:07:21.436Z,14.98
2023-05-07T21:09:50.568Z,13.90
2023-05-07T21:12:19.226Z,13.98
2023-05-07T21:14:48.658Z,13.35
2023-05-07T21:17:18.976Z,14.23
2023-05-07T21:19:48.464Z,13.57
2023-05-07T21:22:17.399Z,14.30
2023-05-07T21:24:46.779Z,14.50
2023-05-07T21:27:15.541Z,12.40
2023-05-07T21:29:48.712Z,12.40
2023-05-07T21:32:23.770Z,13.70
2023-05-07T21:34:57.030Z,17.10
2023-05-07T21:37:27.991Z,12.57
2023-05-07T21:39:57.979Z,14.07
2023-05-07T21:42:27.134Z,15.00
2023-05-07T21:44:56.314Z,13.55
2023-05-07T21:47:32.761Z,13.32
2023-05-07T21:50:01.772Z,12.18
2023-05-07T21:52:30.917Z,12.32
2023-05-07T21:55:02.548Z,11.70
2023-05-07T21:57:31.882Z,11.05
2023-05-07T22:00:00.492Z,12.30
2023-05-07T22:02:30.729Z,10.88
2023-05-07T22:04:59.289Z,9.88
2023-05-07T22:07:27.882Z,11.65
2023-05-07T22:09:56.311Z,9.15
2023-05-07T22:12:24.763Z,10.43
2023-05-07T22:14:53.288Z,10.63
2023-05-07T22:17:21.941Z,9.18
2023-05-07T22:19:51.860Z,11.02
2023-05-07T22:22:20.449Z,8.77
2023-05-07T22:24:49.024Z,8.73
2023-05-07T22:27:17.509Z,10.40
2023-05-07T22:29:45.979Z,10.55
2023-05-07T22:32:14.527Z,8.90
2023-05-07T22:34:43.198Z,10.05
2023-05-07T22:37:13.066Z,11.73
2023-05-07T22:39:42.169Z,10.18
2023-05-07T22:42:10.644Z,8.82
2023-05-07T22:44:39.224Z,10.25
2023-05-07T22:47:07.830Z,9.70
2023-05-07T22:49:36.301Z,10.15
2023-05-07T22:52:04.899Z,9.32
2023-05-07T22:54:34.762Z,9.52
2023-05-07T22:57:03.638Z,10.55
2023-05-07T22:59:32.474Z,10.27
2023-05-07T23:02:01.270Z,9.48
2023-05-07T23:04:30.182Z,9.68
2023-05-07T23:06:58.969Z,9.10
2023-05-07T23:09:28.041Z,7.93
2023-05-07T23:11:58.126Z,10.23
2023-05-07T23:14:26.741Z,11.20
2023-05-07T23:16:55.521Z,9.70
2023-05-07T23:19:24.449Z,9.45
2023-05-07T23:21:53.414Z,9.60
2023-05-07T23:24:22.168Z,11.07
2023-05-07T23:26:50.919Z,11.13
2023-05-07T23:29:21.129Z,10.77
2023-05-07T23:31:49.822Z,9.60
2023-05-07T23:34:24.155Z,15.43
2023-05-07T23:36:53.160Z,11.25
2023-05-07T23:39:21.851Z,10.45
2023-05-07T23:41:50.542Z,10.38
2023-05-07T23:44:19.236Z,11.00
2023-05-07T23:46:49.387Z,11.57
2023-05-07T23:49:18.332Z,10.40
2023-05-07T23:51:46.914Z,9.85
2023-05-07T23:54:15.692Z,9.98
2023-05-07T23:56:44.540Z,10.20
2023-05-07T23:59:13.535Z,12.23
